sensor_id;sensor_type;location;lat;lon;timestamp;P1;durP1;ratioP1;P2;durP2;ratioP2
7817;SDS011;3954;52.624;9.212;2024-02-23T00:00:56;3.70;;;1.30;;
7817;SDS011;3954;52.624;9.212;2024-02-23T00:03:22;4.03;;;1.67;;
7817;SDS011;3954;52.624;9.212;2024-02-23T00:05:48;5.07;;;2.30;;
7817;SDS011;3954;52.624;9.212;2024-02-23T00:08:14;2.00;;;1.57;;
7817;SDS011;3954;52.624;9.212;2024-02-23T00:10:40;2.47;;;1.30;;
7817;SDS011;3954;52.624;9.212;2024-02-23T00:13:06;3.97;;;1.90;;
7817;SDS011;3954;52.624;9.212;2024-02-23T00:15:32;3.80;;;1.60;;
7817;SDS011;3954;52.624;9.212;2024-02-23T00:17:59;2.10;;;1.50;;
7817;SDS011;3954;52.624;9.212;2024-02-23T00:20:25;2.93;;;1.50;;
7817;SDS011;3954;52.624;9.212;2024-02-23T00:22:51;2.60;;;1.60;;
7817;SDS011;3954;52.624;9.212;2024-02-23T00:25:17;3.57;;;1.73;;
7817;SDS011;3954;52.624;9.212;2024-02-23T00:27:44;3.20;;;1.63;;
7817;SDS011;3954;52.624;9.212;2024-02-23T00:30:12;4.07;;;1.73;;
7817;SDS011;3954;52.624;9.212;2024-02-23T00:32:38;3.63;;;1.80;;
7817;SDS011;3954;52.624;9.212;2024-02-23T00:35:05;5.47;;;1.80;;
7817;SDS011;3954;52.624;9.212;2024-02-23T00:37:31;2.43;;;1.70;;
7817;SDS011;3954;52.624;9.212;2024-02-23T00:40:00;2.60;;;1.50;;
7817;SDS011;3954;52.624;9.212;2024-02-23T00:42:29;1.60;;;1.27;;
7817;SDS011;3954;52.624;9.212;2024-02-23T00:44:55;4.27;;;1.60;;
7817;SDS011;3954;52.624;9.212;2024-02-23T00:47:21;4.83;;;1.57;;
7817;SDS011;3954;52.624;9.212;2024-02-23T00:49:47;4.33;;;1.50;;
7817;SDS011;3954;52.624;9.212;2024-02-23T00:52:15;3.43;;;1.30;;
7817;SDS011;3954;52.624;9.212;2024-02-23T00:54:41;2.30;;;1.60;;
7817;SDS011;3954;52.624;9.212;2024-02-23T00:57:07;2.43;;;1.30;;
7817;SDS011;3954;52.624;9.212;2024-02-23T00:59:33;6.93;;;1.50;;
7817;SDS011;3954;52.624;9.212;2024-02-23T01:01:59;2.17;;;1.20;;
7817;SDS011;3954;52.624;9.212;2024-02-23T01:04:25;2.77;;;1.27;;
7817;SDS011;3954;52.624;9.212;2024-02-23T01:06:51;1.13;;;1.03;;
7817;SDS011;3954;52.624;9.212;2024-02-23T01:09:18;1.80;;;1.00;;
7817;SDS011;3954;52.624;9.212;2024-02-23T01:11:45;1.83;;;1.20;;
7817;SDS011;3954;52.624;9.212;2024-02-23T01:14:11;1.47;;;1.13;;
7817;SDS011;3954;52.624;9.212;2024-02-23T01:16:37;0.70;;;0.70;;
7817;SDS011;3954;52.624;9.212;2024-02-23T01:19:03;1.73;;;0.90;;
7817;SDS011;3954;52.624;9.212;2024-02-23T01:21:29;0.60;;;0.60;;
7817;SDS011;3954;52.624;9.212;2024-02-23T01:23:55;0.57;;;0.57;;
7817;SDS011;3954;52.624;9.212;2024-02-23T01:26:23;0.50;;;0.50;;
7817;SDS011;3954;52.624;9.212;2024-02-23T01:28:49;0.70;;;0.70;;
7817;SDS011;3954;52.624;9.212;2024-02-23T01:31:15;0.67;;;0.60;;
7817;SDS011;3954;52.624;9.212;2024-02-23T01:33:41;1.00;;;1.00;;
7817;SDS011;3954;52.624;9.212;2024-02-23T01:36:07;0.80;;;0.80;;
7817;SDS011;3954;52.624;9.212;2024-02-23T01:38:33;0.70;;;0.70;;
7817;SDS011;3954;52.624;9.212;2024-02-23T01:40:59;0.60;;;0.60;;
7817;SDS011;3954;52.624;9.212;2024-02-23T01:43:27;0.80;;;0.80;;
7817;SDS011;3954;52.624;9.212;2024-02-23T01:45:53;0.60;;;0.60;;
7817;SDS011;3954;52.624;9.212;2024-02-23T01:48:19;2.80;;;0.70;;
7817;SDS011;3954;52.624;9.212;2024-02-23T01:50:46;0.70;;;0.70;;
7817;SDS011;3954;52.624;9.212;2024-02-23T01:53:12;0.80;;;0.80;;
7817;SDS011;3954;52.624;9.212;2024-02-23T01:55:39;0.70;;;0.70;;
7817;SDS011;3954;52.624;9.212;2024-02-23T01:58:06;0.70;;;0.70;;
7817;SDS011;3954;52.624;9.212;2024-02-23T02:00:33;0.73;;;0.73;;
7817;SDS011;3954;52.624;9.212;2024-02-23T02:03:01;0.70;;;0.70;;
7817;SDS011;3954;52.624;9.212;2024-02-23T02:05:28;0.63;;;0.63;;
7817;SDS011;3954;52.624;9.212;2024-02-23T02:07:54;0.77;;;0.77;;
7817;SDS011;3954;52.624;9.212;2024-02-23T02:10:24;0.70;;;0.70;;
7817;SDS011;3954;52.624;9.212;2024-02-23T02:12:50;0.70;;;0.70;;
7817;SDS011;3954;52.624;9.212;2024-02-23T02:15:16;0.80;;;0.80;;
7817;SDS011;3954;52.624;9.212;2024-02-23T02:17:44;0.90;;;0.90;;
7817;SDS011;3954;52.624;9.212;2024-02-23T02:20:11;0.90;;;0.90;;
7817;SDS011;3954;52.624;9.212;2024-02-23T02:22:37;2.53;;;0.90;;
7817;SDS011;3954;52.624;9.212;2024-02-23T02:25:03;0.90;;;0.90;;
7817;SDS011;3954;52.624;9.212;2024-02-23T02:27:29;0.90;;;0.90;;
7817;SDS011;3954;52.624;9.212;2024-02-23T02:29:55;0.90;;;0.90;;
7817;SDS011;3954;52.624;9.212;2024-02-23T02:32:22;1.10;;;1.10;;
7817;SDS011;3954;52.624;9.212;2024-02-23T02:34:50;0.93;;;0.93;;
7817;SDS011;3954;52.624;9.212;2024-02-23T02:37:16;1.00;;;1.00;;
7817;SDS011;3954;52.624;9.212;2024-02-23T02:39:41;0.90;;;0.90;;
7817;SDS011;3954;52.624;9.212;2024-02-23T02:42:08;1.03;;;1.03;;
7817;SDS011;3954;52.624;9.212;2024-02-23T02:44:34;0.97;;;0.97;;
7817;SDS011;3954;52.624;9.212;2024-02-23T02:47:00;1.10;;;1.00;;
7817;SDS011;3954;52.624;9.212;2024-02-23T02:49:26;0.90;;;0.90;;
7817;SDS011;3954;52.624;9.212;2024-02-23T02:51:53;1.00;;;1.00;;
7817;SDS011;3954;52.624;9.212;2024-02-23T02:54:19;1.97;;;1.10;;
7817;SDS011;3954;52.624;9.212;2024-02-23T02:56:46;0.90;;;0.90;;
7817;SDS011;3954;52.624;9.212;2024-02-23T02:59:13;1.20;;;1.10;;
7817;SDS011;3954;52.624;9.212;2024-02-23T03:01:39;1.00;;;1.00;;
7817;SDS011;3954;52.624;9.212;2024-02-23T03:04:05;1.10;;;1.10;;
7817;SDS011;3954;52.624;9.212;2024-02-23T03:06:31;1.13;;;1.10;;
7817;SDS011;3954;52.624;9.212;2024-02-23T03:08:58;1.70;;;1.13;;
7817;SDS011;3954;52.624;9.212;2024-02-23T03:11:24;1.60;;;1.40;;
7817;SDS011;3954;52.624;9.212;2024-02-23T03:13:50;1.57;;;1.13;;
7817;SDS011;3954;52.624;9.212;2024-02-23T03:16:16;2.30;;;1.40;;
7817;SDS011;3954;52.624;9.212;2024-02-23T03:18:42;3.27;;;1.40;;
7817;SDS011;3954;52.624;9.212;2024-02-23T03:21:08;2.67;;;1.60;;
7817;SDS011;3954;52.624;9.212;2024-02-23T03:23:34;2.10;;;1.37;;
7817;SDS011;3954;52.624;9.212;2024-02-23T03:26:02;2.33;;;1.60;;
7817;SDS011;3954;52.624;9.212;2024-02-23T03:28:28;2.20;;;1.20;;
7817;SDS011;3954;52.624;9.212;2024-02-23T03:30:54;2.60;;;1.57;;
7817;SDS011;3954;52.624;9.212;2024-02-23T03:33:20;2.07;;;1.63;;
7817;SDS011;3954;52.624;9.212;2024-02-23T03:35:46;4.40;;;1.53;;
7817;SDS011;3954;52.624;9.212;2024-02-23T03:38:12;2.63;;;1.70;;
7817;SDS011;3954;52.624;9.212;2024-02-23T03:40:38;1.70;;;1.20;;
7817;SDS011;3954;52.624;9.212;2024-02-23T03:43:05;2.37;;;1.40;;
7817;SDS011;3954;52.624;9.212;2024-02-23T03:45:31;2.57;;;1.50;;
7817;SDS011;3954;52.624;9.212;2024-02-23T03:47:57;3.13;;;1.83;;
7817;SDS011;3954;52.624;9.212;2024-02-23T03:50:24;2.83;;;1.53;;
7817;SDS011;3954;52.624;9.212;2024-02-23T03:52:50;2.30;;;1.50;;
7817;SDS011;3954;52.624;9.212;2024-02-23T03:55:16;1.50;;;1.40;;
7817;SDS011;3954;52.624;9.212;2024-02-23T03:57:42;1.80;;;1.67;;
7817;SDS011;3954;52.624;9.212;2024-02-23T04:00:10;2.90;;;2.13;;
7817;SDS011;3954;52.624;9.212;2024-02-23T04:02:36;3.80;;;1.63;;
7817;SDS011;3954;52.624;9.212;2024-02-23T04:05:04;3.27;;;1.97;;
7817;SDS011;3954;52.624;9.212;2024-02-23T04:07:30;1.80;;;1.70;;
7817;SDS011;3954;52.624;9.212;2024-02-23T04:09:56;2.53;;;1.63;;
7817;SDS011;3954;52.624;9.212;2024-02-23T04:12:22;2.93;;;2.00;;
7817;SDS011;3954;52.624;9.212;2024-02-23T04:14:48;4.50;;;2.07;;
7817;SDS011;3954;52.624;9.212;2024-02-23T04:17:16;1.80;;;1.70;;
7817;SDS011;3954;52.624;9.212;2024-02-23T04:19:42;2.87;;;2.03;;
7817;SDS011;3954;52.624;9.212;2024-02-23T04:22:09;2.77;;;1.73;;
7817;SDS011;3954;52.624;9.212;2024-02-23T04:24:36;2.47;;;1.77;;
7817;SDS011;3954;52.624;9.212;2024-02-23T04:27:02;5.23;;;2.20;;
7817;SDS011;3954;52.624;9.212;2024-02-23T04:29:28;3.20;;;2.20;;
7817;SDS011;3954;52.624;9.212;2024-02-23T04:31:54;6.47;;;2.20;;
7817;SDS011;3954;52.624;9.212;2024-02-23T04:34:21;4.90;;;2.40;;
7817;SDS011;3954;52.624;9.212;2024-02-23T04:36:47;3.10;;;1.90;;
7817;SDS011;3954;52.624;9.212;2024-02-23T04:39:13;4.03;;;1.80;;
7817;SDS011;3954;52.624;9.212;2024-02-23T04:41:39;3.83;;;1.93;;
7817;SDS011;3954;52.624;9.212;2024-02-23T04:44:05;3.50;;;1.70;;
7817;SDS011;3954;52.624;9.212;2024-02-23T04:46:31;5.57;;;2.07;;
7817;SDS011;3954;52.624;9.212;2024-02-23T04:48:59;4.23;;;1.90;;
7817;SDS011;3954;52.624;9.212;2024-02-23T04:51:26;2.43;;;1.90;;
7817;SDS011;3954;52.624;9.212;2024-02-23T04:53:52;2.80;;;1.70;;
7817;SDS011;3954;52.624;9.212;2024-02-23T04:56:18;4.10;;;1.90;;
7817;SDS011;3954;52.624;9.212;2024-02-23T04:58:44;5.17;;;2.27;;
7817;SDS011;3954;52.624;9.212;2024-02-23T05:01:10;3.53;;;2.20;;
7817;SDS011;3954;52.624;9.212;2024-02-23T05:03:36;4.77;;;1.90;;
7817;SDS011;3954;52.624;9.212;2024-02-23T05:06:03;4.17;;;1.90;;
7817;SDS011;3954;52.624;9.212;2024-02-23T05:08:30;3.17;;;1.80;;
7817;SDS011;3954;52.624;9.212;2024-02-23T05:10:56;4.53;;;1.93;;
7817;SDS011;3954;52.624;9.212;2024-02-23T05:13:22;3.57;;;1.80;;
7817;SDS011;3954;52.624;9.212;2024-02-23T05:15:48;3.77;;;1.80;;
7817;SDS011;3954;52.624;9.212;2024-02-23T05:18:15;2.47;;;2.13;;
7817;SDS011;3954;52.624;9.212;2024-02-23T05:20:41;5.07;;;2.13;;
7817;SDS011;3954;52.624;9.212;2024-02-23T05:23:07;2.57;;;1.60;;
7817;SDS011;3954;52.624;9.212;2024-02-23T05:25:34;2.47;;;1.87;;
7817;SDS011;3954;52.624;9.212;2024-02-23T05:28:00;5.80;;;2.40;;
7817;SDS011;3954;52.624;9.212;2024-02-23T05:30:26;4.30;;;1.83;;
7817;SDS011;3954;52.624;9.212;2024-02-23T05:32:56;6.17;;;2.10;;
7817;SDS011;3954;52.624;9.212;2024-02-23T05:35:23;4.47;;;2.00;;
7817;SDS011;3954;52.624;9.212;2024-02-23T05:37:49;4.97;;;1.70;;
7817;SDS011;3954;52.624;9.212;2024-02-23T05:40:15;4.93;;;2.63;;
7817;SDS011;3954;52.624;9.212;2024-02-23T05:42:42;3.47;;;1.73;;
7817;SDS011;3954;52.624;9.212;2024-02-23T05:45:09;4.60;;;1.77;;
7817;SDS011;3954;52.624;9.212;2024-02-23T05:47:36;4.00;;;2.10;;
7817;SDS011;3954;52.624;9.212;2024-02-23T05:50:02;3.33;;;1.60;;
7817;SDS011;3954;52.624;9.212;2024-02-23T05:52:28;4.07;;;1.67;;
7817;SDS011;3954;52.624;9.212;2024-02-23T05:54:54;2.23;;;1.60;;
7817;SDS011;3954;52.624;9.212;2024-02-23T05:57:21;2.67;;;1.73;;
7817;SDS011;3954;52.624;9.212;2024-02-23T05:59:48;3.97;;;1.80;;
7817;SDS011;3954;52.624;9.212;2024-02-23T06:02:14;2.40;;;1.50;;
7817;SDS011;3954;52.624;9.212;2024-02-23T06:04:40;5.97;;;1.60;;
7817;SDS011;3954;52.624;9.212;2024-02-23T06:07:06;3.60;;;1.93;;
7817;SDS011;3954;52.624;9.212;2024-02-23T06:09:32;5.87;;;1.70;;
7817;SDS011;3954;52.624;9.212;2024-02-23T06:11:58;3.33;;;1.77;;
7817;SDS011;3954;52.624;9.212;2024-02-23T06:14:24;6.77;;;1.87;;
7817;SDS011;3954;52.624;9.212;2024-02-23T06:16:52;6.73;;;1.90;;
7817;SDS011;3954;52.624;9.212;2024-02-23T06:19:18;4.67;;;2.10;;
7817;SDS011;3954;52.624;9.212;2024-02-23T06:21:47;4.57;;;2.20;;
7817;SDS011;3954;52.624;9.212;2024-02-23T06:24:13;4.30;;;2.03;;
7817;SDS011;3954;52.624;9.212;2024-02-23T06:26:40;6.57;;;2.17;;
7817;SDS011;3954;52.624;9.212;2024-02-23T06:29:06;4.93;;;1.90;;
7817;SDS011;3954;52.624;9.212;2024-02-23T06:31:36;3.80;;;1.80;;
7817;SDS011;3954;52.624;9.212;2024-02-23T06:34:04;6.40;;;1.90;;
7817;SDS011;3954;52.624;9.212;2024-02-23T06:36:30;4.67;;;2.03;;
7817;SDS011;3954;52.624;9.212;2024-02-23T06:38:56;3.00;;;1.60;;
7817;SDS011;3954;52.624;9.212;2024-02-23T06:41:22;3.67;;;1.77;;
7817;SDS011;3954;52.624;9.212;2024-02-23T06:43:48;3.00;;;1.53;;
7817;SDS011;3954;52.624;9.212;2024-02-23T06:46:14;3.03;;;1.80;;
7817;SDS011;3954;52.624;9.212;2024-02-23T06:48:40;3.13;;;1.77;;
7817;SDS011;3954;52.624;9.212;2024-02-23T06:51:07;3.17;;;1.90;;
7817;SDS011;3954;52.624;9.212;2024-02-23T06:53:34;5.47;;;1.77;;
7817;SDS011;3954;52.624;9.212;2024-02-23T06:56:00;4.77;;;2.30;;
7817;SDS011;3954;52.624;9.212;2024-02-23T06:58:26;4.40;;;2.20;;
7817;SDS011;3954;52.624;9.212;2024-02-23T07:00:53;4.47;;;2.00;;
7817;SDS011;3954;52.624;9.212;2024-02-23T07:03:18;5.13;;;2.40;;
7817;SDS011;3954;52.624;9.212;2024-02-23T07:05:45;5.93;;;2.50;;
7817;SDS011;3954;52.624;9.212;2024-02-23T07:08:13;4.83;;;1.90;;
7817;SDS011;3954;52.624;9.212;2024-02-23T07:10:39;3.50;;;1.83;;
7817;SDS011;3954;52.624;9.212;2024-02-23T07:13:05;4.40;;;2.13;;
7817;SDS011;3954;52.624;9.212;2024-02-23T07:15:32;4.83;;;1.87;;
7817;SDS011;3954;52.624;9.212;2024-02-23T07:17:58;5.37;;;2.40;;
7817;SDS011;3954;52.624;9.212;2024-02-23T07:20:24;5.57;;;2.63;;
7817;SDS011;3954;52.624;9.212;2024-02-23T07:22:50;5.10;;;1.97;;
7817;SDS011;3954;52.624;9.212;2024-02-23T07:25:17;4.23;;;1.80;;
7817;SDS011;3954;52.624;9.212;2024-02-23T07:27:45;6.50;;;2.30;;
7817;SDS011;3954;52.624;9.212;2024-02-23T07:30:11;3.07;;;2.00;;
7817;SDS011;3954;52.624;9.212;2024-02-23T07:32:37;4.83;;;1.80;;
7817;SDS011;3954;52.624;9.212;2024-02-23T07:35:03;3.67;;;1.93;;
7817;SDS011;3954;52.624;9.212;2024-02-23T07:37:29;3.13;;;1.70;;
7817;SDS011;3954;52.624;9.212;2024-02-23T07:39:55;3.07;;;1.67;;
7817;SDS011;3954;52.624;9.212;2024-02-23T07:42:23;3.40;;;2.10;;
7817;SDS011;3954;52.624;9.212;2024-02-23T07:44:49;3.10;;;1.97;;
7817;SDS011;3954;52.624;9.212;2024-02-23T07:47:15;6.80;;;2.17;;
7817;SDS011;3954;52.624;9.212;2024-02-23T07:49:41;6.17;;;2.10;;
7817;SDS011;3954;52.624;9.212;2024-02-23T07:52:07;5.37;;;2.20;;
7817;SDS011;3954;52.624;9.212;2024-02-23T07:54:33;4.80;;;1.80;;
7817;SDS011;3954;52.624;9.212;2024-02-23T07:56:59;3.90;;;1.57;;
7817;SDS011;3954;52.624;9.212;2024-02-23T07:59:26;4.10;;;1.60;;
7817;SDS011;3954;52.624;9.212;2024-02-23T08:01:53;5.27;;;1.90;;
7817;SDS011;3954;52.624;9.212;2024-02-23T08:04:20;4.30;;;1.93;;
7817;SDS011;3954;52.624;9.212;2024-02-23T08:06:46;3.90;;;2.00;;
7817;SDS011;3954;52.624;9.212;2024-02-23T08:09:13;6.23;;;2.33;;
7817;SDS011;3954;52.624;9.212;2024-02-23T08:11:39;4.30;;;1.67;;
7817;SDS011;3954;52.624;9.212;2024-02-23T08:14:05;3.50;;;2.27;;
7817;SDS011;3954;52.624;9.212;2024-02-23T08:16:33;4.57;;;1.70;;
7817;SDS011;3954;52.624;9.212;2024-02-23T08:18:59;7.00;;;2.13;;
7817;SDS011;3954;52.624;9.212;2024-02-23T08:21:25;3.70;;;1.60;;
7817;SDS011;3954;52.624;9.212;2024-02-23T08:23:51;3.53;;;1.70;;
7817;SDS011;3954;52.624;9.212;2024-02-23T08:26:17;3.90;;;1.63;;
7817;SDS011;3954;52.624;9.212;2024-02-23T08:28:43;3.40;;;1.80;;
7817;SDS011;3954;52.624;9.212;2024-02-23T08:31:09;3.93;;;1.70;;
7817;SDS011;3954;52.624;9.212;2024-02-23T08:33:36;2.43;;;1.60;;
7817;SDS011;3954;52.624;9.212;2024-02-23T08:36:03;5.33;;;1.90;;
7817;SDS011;3954;52.624;9.212;2024-02-23T08:38:30;5.97;;;2.03;;
7817;SDS011;3954;52.624;9.212;2024-02-23T08:40:56;4.43;;;1.80;;
7817;SDS011;3954;52.624;9.212;2024-02-23T08:43:23;4.00;;;1.50;;
7817;SDS011;3954;52.624;9.212;2024-02-23T08:45:49;6.40;;;1.77;;
7817;SDS011;3954;52.624;9.212;2024-02-23T08:48:16;3.83;;;1.43;;
7817;SDS011;3954;52.624;9.212;2024-02-23T08:50:44;3.50;;;1.60;;
7817;SDS011;3954;52.624;9.212;2024-02-23T08:53:10;5.40;;;1.80;;
7817;SDS011;3954;52.624;9.212;2024-02-23T08:55:36;5.83;;;2.20;;
7817;SDS011;3954;52.624;9.212;2024-02-23T08:58:02;4.13;;;1.70;;
7817;SDS011;3954;52.624;9.212;2024-02-23T09:00:30;6.53;;;2.50;;
7817;SDS011;3954;52.624;9.212;2024-02-23T09:02:56;5.03;;;2.10;;
7817;SDS011;3954;52.624;9.212;2024-02-23T09:05:22;3.73;;;1.77;;
7817;SDS011;3954;52.624;9.212;2024-02-23T09:07:50;2.80;;;1.73;;
7817;SDS011;3954;52.624;9.212;2024-02-23T09:10:16;4.57;;;1.50;;
7817;SDS011;3954;52.624;9.212;2024-02-23T09:12:45;3.13;;;1.40;;
7817;SDS011;3954;52.624;9.212;2024-02-23T09:15:12;3.83;;;1.63;;
7817;SDS011;3954;52.624;9.212;2024-02-23T09:17:39;5.13;;;1.60;;
7817;SDS011;3954;52.624;9.212;2024-02-23T09:20:06;4.83;;;1.67;;
7817;SDS011;3954;52.624;9.212;2024-02-23T09:22:32;6.47;;;1.50;;
7817;SDS011;3954;52.624;9.212;2024-02-23T09:24:59;3.53;;;1.60;;
7817;SDS011;3954;52.624;9.212;2024-02-23T09:27:25;4.87;;;1.40;;
7817;SDS011;3954;52.624;9.212;2024-02-23T09:29:51;3.70;;;1.60;;
7817;SDS011;3954;52.624;9.212;2024-02-23T09:32:17;6.73;;;2.23;;
7817;SDS011;3954;52.624;9.212;2024-02-23T09:34:43;4.90;;;1.43;;
7817;SDS011;3954;52.624;9.212;2024-02-23T09:37:09;2.90;;;1.73;;
7817;SDS011;3954;52.624;9.212;2024-02-23T09:39:35;2.63;;;1.50;;
7817;SDS011;3954;52.624;9.212;2024-02-23T09:42:03;2.33;;;1.37;;
7817;SDS011;3954;52.624;9.212;2024-02-23T09:44:34;3.43;;;1.80;;
7817;SDS011;3954;52.624;9.212;2024-02-23T09:47:01;4.77;;;1.70;;
7817;SDS011;3954;52.624;9.212;2024-02-23T09:49:33;2.33;;;1.30;;
7817;SDS011;3954;52.624;9.212;2024-02-23T09:51:59;3.13;;;1.60;;
7817;SDS011;3954;52.624;9.212;2024-02-23T09:54:26;3.43;;;1.30;;
7817;SDS011;3954;52.624;9.212;2024-02-23T09:56:52;3.53;;;1.47;;
7817;SDS011;3954;52.624;9.212;2024-02-23T09:59:20;3.83;;;1.50;;
7817;SDS011;3954;52.624;9.212;2024-02-23T10:01:46;4.20;;;1.30;;
7817;SDS011;3954;52.624;9.212;2024-02-23T10:04:12;2.90;;;1.43;;
7817;SDS011;3954;52.624;9.212;2024-02-23T10:06:38;3.37;;;1.30;;
7817;SDS011;3954;52.624;9.212;2024-02-23T10:09:04;5.13;;;1.40;;
7817;SDS011;3954;52.624;9.212;2024-02-23T10:11:30;3.40;;;1.50;;
7817;SDS011;3954;52.624;9.212;2024-02-23T10:13:56;3.37;;;1.40;;
7817;SDS011;3954;52.624;9.212;2024-02-23T10:16:24;2.40;;;1.40;;
7817;SDS011;3954;52.624;9.212;2024-02-23T10:18:50;4.20;;;2.07;;
7817;SDS011;3954;52.624;9.212;2024-02-23T10:21:16;1.87;;;1.33;;
7817;SDS011;3954;52.624;9.212;2024-02-23T10:23:43;2.57;;;1.57;;
7817;SDS011;3954;52.624;9.212;2024-02-23T10:26:10;3.03;;;1.50;;
7817;SDS011;3954;52.624;9.212;2024-02-23T10:28:36;2.37;;;1.73;;
7817;SDS011;3954;52.624;9.212;2024-02-23T10:31:06;5.10;;;1.40;;
7817;SDS011;3954;52.624;9.212;2024-02-23T10:33:33;8.30;;;4.50;;
7817;SDS011;3954;52.624;9.212;2024-02-23T10:36:00;3.13;;;2.00;;
7817;SDS011;3954;52.624;9.212;2024-02-23T10:38:27;3.87;;;1.70;;
7817;SDS011;3954;52.624;9.212;2024-02-23T10:40:53;3.07;;;1.47;;
7817;SDS011;3954;52.624;9.212;2024-02-23T10:43:22;3.57;;;1.40;;
7817;SDS011;3954;52.624;9.212;2024-02-23T10:45:49;3.27;;;1.50;;
7817;SDS011;3954;52.624;9.212;2024-02-23T10:48:16;3.23;;;1.37;;
7817;SDS011;3954;52.624;9.212;2024-02-23T10:50:44;2.00;;;1.40;;
7817;SDS011;3954;52.624;9.212;2024-02-23T10:53:10;2.23;;;1.40;;
7817;SDS011;3954;52.624;9.212;2024-02-23T10:55:36;3.70;;;1.60;;
7817;SDS011;3954;52.624;9.212;2024-02-23T10:58:03;4.07;;;1.40;;
7817;SDS011;3954;52.624;9.212;2024-02-23T11:00:32;2.17;;;1.20;;
7817;SDS011;3954;52.624;9.212;2024-02-23T11:02:58;4.23;;;1.70;;
7817;SDS011;3954;52.624;9.212;2024-02-23T11:05:25;2.10;;;1.10;;
7817;SDS011;3954;52.624;9.212;2024-02-23T11:07:55;3.53;;;1.40;;
7817;SDS011;3954;52.624;9.212;2024-02-23T11:10:21;2.40;;;1.40;;
7817;SDS011;3954;52.624;9.212;2024-02-23T11:12:57;1.77;;;1.50;;
7817;SDS011;3954;52.624;9.212;2024-02-23T11:15:27;1.90;;;1.27;;
7817;SDS011;3954;52.624;9.212;2024-02-23T11:17:54;2.47;;;1.37;;
7817;SDS011;3954;52.624;9.212;2024-02-23T11:20:20;5.03;;;1.50;;
7817;SDS011;3954;52.624;9.212;2024-02-23T11:22:52;3.33;;;1.40;;
7817;SDS011;3954;52.624;9.212;2024-02-23T11:25:19;3.73;;;1.20;;
7817;SDS011;3954;52.624;9.212;2024-02-23T11:27:49;3.20;;;1.23;;
7817;SDS011;3954;52.624;9.212;2024-02-23T11:30:16;2.50;;;1.10;;
7817;SDS011;3954;52.624;9.212;2024-02-23T11:32:43;2.43;;;1.23;;
7817;SDS011;3954;52.624;9.212;2024-02-23T11:35:10;4.10;;;1.40;;
7817;SDS011;3954;52.624;9.212;2024-02-23T11:37:45;1.97;;;1.00;;
7817;SDS011;3954;52.624;9.212;2024-02-23T11:40:13;4.27;;;1.30;;
7817;SDS011;3954;52.624;9.212;2024-02-23T11:42:39;1.67;;;1.10;;
7817;SDS011;3954;52.624;9.212;2024-02-23T11:45:06;3.77;;;1.30;;
7817;SDS011;3954;52.624;9.212;2024-02-23T11:47:32;2.60;;;1.20;;
7817;SDS011;3954;52.624;9.212;2024-02-23T11:49:59;2.03;;;1.20;;
7817;SDS011;3954;52.624;9.212;2024-02-23T11:52:25;4.43;;;1.60;;
7817;SDS011;3954;52.624;9.212;2024-02-23T11:54:51;3.60;;;1.40;;
7817;SDS011;3954;52.624;9.212;2024-02-23T11:57:18;3.00;;;1.30;;
7817;SDS011;3954;52.624;9.212;2024-02-23T11:59:44;4.37;;;1.20;;
7817;SDS011;3954;52.624;9.212;2024-02-23T12:02:10;1.70;;;1.10;;
7817;SDS011;3954;52.624;9.212;2024-02-23T12:04:38;3.37;;;1.23;;
7817;SDS011;3954;52.624;9.212;2024-02-23T12:07:04;4.10;;;1.30;;
7817;SDS011;3954;52.624;9.212;2024-02-23T12:09:30;2.60;;;1.13;;
7817;SDS011;3954;52.624;9.212;2024-02-23T12:11:56;2.73;;;1.37;;
7817;SDS011;3954;52.624;9.212;2024-02-23T12:14:24;1.67;;;1.13;;
7817;SDS011;3954;52.624;9.212;2024-02-23T12:16:51;2.03;;;1.37;;
7817;SDS011;3954;52.624;9.212;2024-02-23T12:19:17;1.57;;;1.10;;
7817;SDS011;3954;52.624;9.212;2024-02-23T12:21:44;4.13;;;1.70;;
7817;SDS011;3954;52.624;9.212;2024-02-23T12:24:11;1.50;;;1.40;;
7817;SDS011;3954;52.624;9.212;2024-02-23T12:26:37;2.93;;;1.50;;
7817;SDS011;3954;52.624;9.212;2024-02-23T12:29:04;3.13;;;1.30;;
7817;SDS011;3954;52.624;9.212;2024-02-23T12:31:32;4.47;;;1.30;;
7817;SDS011;3954;52.624;9.212;2024-02-23T12:33:59;2.70;;;1.30;;
7817;SDS011;3954;52.624;9.212;2024-02-23T12:36:26;2.13;;;1.30;;
7817;SDS011;3954;52.624;9.212;2024-02-23T12:38:52;2.23;;;1.30;;
7817;SDS011;3954;52.624;9.212;2024-02-23T12:41:18;2.63;;;1.60;;
7817;SDS011;3954;52.624;9.212;2024-02-23T12:43:44;2.47;;;1.23;;
7817;SDS011;3954;52.624;9.212;2024-02-23T12:46:10;5.40;;;1.50;;
7817;SDS011;3954;52.624;9.212;2024-02-23T12:48:40;2.40;;;1.63;;
7817;SDS011;3954;52.624;9.212;2024-02-23T12:51:07;3.63;;;1.93;;
7817;SDS011;3954;52.624;9.212;2024-02-23T12:53:34;2.03;;;1.50;;
7817;SDS011;3954;52.624;9.212;2024-02-23T12:56:01;2.50;;;1.77;;
7817;SDS011;3954;52.624;9.212;2024-02-23T12:58:28;3.10;;;1.67;;
7817;SDS011;3954;52.624;9.212;2024-02-23T13:00:54;4.03;;;1.50;;
7817;SDS011;3954;52.624;9.212;2024-02-23T13:03:20;2.30;;;1.80;;
7817;SDS011;3954;52.624;9.212;2024-02-23T13:05:47;3.13;;;2.00;;
7817;SDS011;3954;52.624;9.212;2024-02-23T13:08:13;3.40;;;1.80;;
7817;SDS011;3954;52.624;9.212;2024-02-23T13:10:39;2.83;;;1.90;;
7817;SDS011;3954;52.624;9.212;2024-02-23T13:13:05;2.93;;;1.67;;
7817;SDS011;3954;52.624;9.212;2024-02-23T13:15:31;6.20;;;1.87;;
7817;SDS011;3954;52.624;9.212;2024-02-23T13:17:57;2.60;;;1.60;;
7817;SDS011;3954;52.624;9.212;2024-02-23T13:20:23;4.33;;;1.50;;
7817;SDS011;3954;52.624;9.212;2024-02-23T13:22:51;3.40;;;1.73;;
7817;SDS011;3954;52.624;9.212;2024-02-23T13:25:17;2.97;;;1.90;;
7817;SDS011;3954;52.624;9.212;2024-02-23T13:27:43;3.13;;;1.40;;
7817;SDS011;3954;52.624;9.212;2024-02-23T13:30:09;2.53;;;1.50;;
7817;SDS011;3954;52.624;9.212;2024-02-23T13:32:35;2.27;;;1.37;;
7817;SDS011;3954;52.624;9.212;2024-02-23T13:35:01;1.80;;;1.30;;
7817;SDS011;3954;52.624;9.212;2024-02-23T13:37:29;4.63;;;1.40;;
7817;SDS011;3954;52.624;9.212;2024-02-23T13:39:56;2.83;;;1.40;;
7817;SDS011;3954;52.624;9.212;2024-02-23T13:42:22;2.10;;;1.20;;
7817;SDS011;3954;52.624;9.212;2024-02-23T13:44:48;3.10;;;1.60;;
7817;SDS011;3954;52.624;9.212;2024-02-23T13:47:14;1.20;;;1.10;;
7817;SDS011;3954;52.624;9.212;2024-02-23T13:49:40;4.80;;;1.30;;
7817;SDS011;3954;52.624;9.212;2024-02-23T13:52:06;2.87;;;1.30;;
7817;SDS011;3954;52.624;9.212;2024-02-23T13:54:32;1.47;;;1.30;;
7817;SDS011;3954;52.624;9.212;2024-02-23T13:57:00;1.97;;;1.37;;
7817;SDS011;3954;52.624;9.212;2024-02-23T13:59:26;1.40;;;1.30;;
7817;SDS011;3954;52.624;9.212;2024-02-23T14:01:52;2.43;;;1.23;;
7817;SDS011;3954;52.624;9.212;2024-02-23T14:04:18;1.63;;;1.33;;
7817;SDS011;3954;52.624;9.212;2024-02-23T14:06:44;1.87;;;1.20;;
7817;SDS011;3954;52.624;9.212;2024-02-23T14:09:10;1.37;;;1.27;;
7817;SDS011;3954;52.624;9.212;2024-02-23T14:11:42;1.90;;;1.20;;
7817;SDS011;3954;52.624;9.212;2024-02-23T14:14:14;3.07;;;1.40;;
7817;SDS011;3954;52.624;9.212;2024-02-23T14:16:45;2.33;;;1.30;;
7817;SDS011;3954;52.624;9.212;2024-02-23T14:19:24;2.80;;;1.20;;
7817;SDS011;3954;52.624;9.212;2024-02-23T14:21:51;3.33;;;1.73;;
7817;SDS011;3954;52.624;9.212;2024-02-23T14:24:30;2.03;;;1.20;;
7817;SDS011;3954;52.624;9.212;2024-02-23T14:26:56;1.63;;;0.97;;
7817;SDS011;3954;52.624;9.212;2024-02-23T14:29:24;3.00;;;1.50;;
7817;SDS011;3954;52.624;9.212;2024-02-23T14:31:50;4.33;;;1.40;;
7817;SDS011;3954;52.624;9.212;2024-02-23T14:34:16;2.17;;;1.30;;
7817;SDS011;3954;52.624;9.212;2024-02-23T14:36:45;3.47;;;1.40;;
7817;SDS011;3954;52.624;9.212;2024-02-23T14:39:11;1.53;;;1.00;;
7817;SDS011;3954;52.624;9.212;2024-02-23T14:41:38;2.90;;;1.10;;
7817;SDS011;3954;52.624;9.212;2024-02-23T14:44:06;1.93;;;1.10;;
7817;SDS011;3954;52.624;9.212;2024-02-23T14:49:37;2.83;;;1.23;;
7817;SDS011;3954;52.624;9.212;2024-02-23T14:52:16;1.67;;;1.13;;
7817;SDS011;3954;52.624;9.212;2024-02-23T14:54:44;1.53;;;1.10;;
7817;SDS011;3954;52.624;9.212;2024-02-23T14:57:22;2.30;;;1.30;;
7817;SDS011;3954;52.624;9.212;2024-02-23T15:00:00;1.90;;;0.93;;
7817;SDS011;3954;52.624;9.212;2024-02-23T15:05:16;2.77;;;1.50;;
7817;SDS011;3954;52.624;9.212;2024-02-23T15:13:07;1.77;;;1.30;;
7817;SDS011;3954;52.624;9.212;2024-02-23T15:15:36;2.63;;;1.50;;
7817;SDS011;3954;52.624;9.212;2024-02-23T15:18:11;4.93;;;1.70;;
7817;SDS011;3954;52.624;9.212;2024-02-23T15:20:58;2.87;;;1.27;;
7817;SDS011;3954;52.624;9.212;2024-02-23T15:23:24;2.00;;;1.30;;